createdAt,value
2018-08-30T00:01:36.073Z,55954.49
2018-08-30T00:04:05.281Z,55952.44
2018-08-30T00:06:34.437Z,55985.34
2018-08-30T00:09:04.892Z,55947.30
2018-08-30T00:11:34.053Z,55962.72
2018-08-30T00:14:03.494Z,55967.86
2018-08-30T00:16:32.672Z,55942.16
2018-08-30T00:19:01.877Z,55973.00
2018-08-30T00:21:31.054Z,55977.11
2018-08-30T00:24:00.226Z,55958.61
2018-08-30T00:26:29.400Z,55966.83
2018-08-30T00:28:58.513Z,55958.61
2018-08-30T00:31:27.739Z,55967.86
2018-08-30T00:33:56.894Z,55952.44
2018-08-30T00:36:26.045Z,55975.06
2018-08-30T00:38:55.255Z,55983.28
2018-08-30T00:41:24.481Z,55953.46
2018-08-30T00:43:53.596Z,55974.03
2018-08-30T00:46:22.771Z,55997.68
2018-08-30T00:48:52.012Z,55964.78
2018-08-30T00:51:21.192Z,55988.43
2018-08-30T00:53:50.408Z,55977.11
2018-08-30T00:56:19.656Z,55992.54
2018-08-30T00:58:48.878Z,55959.63
2018-08-30T01:01:18.038Z,55970.95
2018-08-30T01:03:47.165Z,55983.28
2018-08-30T01:06:16.294Z,55962.72
2018-08-30T01:08:45.453Z,55965.80
2018-08-30T01:11:14.636Z,55966.83
2018-08-30T01:13:43.777Z,55983.28
2018-08-30T01:16:12.911Z,55999.73
2018-08-30T01:18:42.156Z,55995.62
2018-08-30T01:21:11.326Z,55982.25
2018-08-30T01:23:40.463Z,55970.95
2018-08-30T01:26:09.694Z,55964.78
2018-08-30T01:28:38.840Z,55966.83
2018-08-30T01:31:07.986Z,55953.46
2018-08-30T01:33:37.131Z,55980.20
2018-08-30T01:36:06.344Z,55952.44
2018-08-30T01:38:35.496Z,55997.68
2018-08-30T01:41:04.625Z,55978.14
2018-08-30T01:43:33.766Z,55973.00
2018-08-30T01:46:02.929Z,55966.83
2018-08-30T01:48:32.046Z,55999.73
2018-08-30T01:51:01.231Z,56014.13
2018-08-30T01:53:30.441Z,55958.61
2018-08-30T01:55:59.572Z,56004.87
2018-08-30T01:58:28.727Z,55962.72
2018-08-30T02:00:57.905Z,55990.48
2018-08-30T02:03:27.175Z,55968.89
2018-08-30T02:05:56.316Z,56000.76
2018-08-30T02:08:25.413Z,55997.68
2018-08-30T02:10:54.583Z,55975.06
2018-08-30T02:13:23.766Z,55993.57
2018-08-30T02:15:52.951Z,55999.73
2018-08-30T02:18:22.103Z,55977.11
2018-08-30T02:20:51.284Z,55985.34
2018-08-30T02:23:20.468Z,55996.65
2018-08-30T02:25:49.606Z,55979.17
2018-08-30T02:28:18.793Z,55997.68
2018-08-30T02:30:47.994Z,55977.11
2018-08-30T02:33:18.132Z,56010.02
2018-08-30T02:35:47.335Z,55990.48
2018-08-30T02:38:16.540Z,56010.02
2018-08-30T02:40:45.742Z,56011.05
2018-08-30T02:43:14.890Z,56002.82
2018-08-30T02:45:44.039Z,55992.54
2018-08-30T02:48:13.209Z,55987.40
2018-08-30T02:50:42.389Z,55995.62
2018-08-30T02:53:11.794Z,56005.90
2018-08-30T02:55:40.975Z,56011.05
2018-08-30T02:58:10.107Z,56014.13
2018-08-30T03:00:39.365Z,56020.30
2018-08-30T03:03:08.508Z,56021.33
2018-08-30T03:05:37.822Z,56004.87
2018-08-30T03:08:07.208Z,55998.71
2018-08-30T03:10:36.439Z,56020.30
2018-08-30T03:13:05.649Z,56029.55
2018-08-30T03:15:34.806Z,56020.30
2018-08-30T03:18:04.025Z,56018.24
2018-08-30T03:20:33.202Z,56028.52
2018-08-30T03:23:02.428Z,56017.21
2018-08-30T03:25:31.593Z,56037.78
2018-08-30T03:28:00.789Z,55999.73
2018-08-30T03:30:29.985Z,56020.30
2018-08-30T03:32:59.211Z,56044.98
2018-08-30T03:35:28.343Z,56063.48
2018-08-30T03:37:57.505Z,56035.72
2018-08-30T03:40:26.658Z,56035.72
2018-08-30T03:42:55.896Z,56023.38
2018-08-30T03:45:25.012Z,56034.70
2018-08-30T03:47:54.158Z,56040.86
2018-08-30T03:50:23.302Z,56061.43
2018-08-30T03:52:52.489Z,56056.29
2018-08-30T03:55:21.717Z,56044.98
2018-08-30T03:57:50.866Z,56044.98
2018-08-30T04:00:20.074Z,56014.13
2018-08-30T04:02:49.276Z,56022.36
2018-08-30T04:05:18.601Z,56029.55
2018-08-30T04:07:47.752Z,56044.98
2018-08-30T04:10:16.929Z,56048.06
2018-08-30T04:12:46.029Z,56031.61
2018-08-30T04:15:15.234Z,56031.61
2018-08-30T04:17:44.474Z,56037.78
2018-08-30T04:20:13.610Z,56036.75
2018-08-30T04:22:42.851Z,56026.47
2018-08-30T04:25:12.044Z,56044.98
2018-08-30T04:27:41.273Z,56047.03
2018-08-30T04:30:10.490Z,56037.78
2018-08-30T04:32:39.698Z,56017.21
2018-08-30T04:35:08.849Z,56064.51
2018-08-30T04:37:37.977Z,56051.14
2018-08-30T04:40:07.240Z,56018.24
2018-08-30T04:42:36.431Z,56018.24
2018-08-30T04:45:06.108Z,56028.52
2018-08-30T04:47:35.269Z,56049.09
2018-08-30T04:50:04.523Z,56061.43
2018-08-30T04:52:33.614Z,56022.36
2018-08-30T04:55:02.754Z,56053.20
2018-08-30T04:57:31.889Z,56026.47
2018-08-30T05:00:01.024Z,56040.86
2018-08-30T05:02:30.147Z,56023.38
2018-08-30T05:04:59.259Z,56037.78
2018-08-30T05:07:28.421Z,56073.77
2018-08-30T05:09:57.610Z,56051.14
2018-08-30T05:12:26.795Z,56067.60
2018-08-30T05:14:55.947Z,56031.61
2018-08-30T05:17:25.122Z,56050.12
2018-08-30T05:19:54.249Z,56041.89
2018-08-30T05:22:23.411Z,56046.00
2018-08-30T05:24:52.573Z,56024.41
2018-08-30T05:27:21.771Z,56034.70
2018-08-30T05:29:51.020Z,56024.41
2018-08-30T05:32:20.077Z,56016.19
2018-08-30T05:34:49.226Z,56051.14
2018-08-30T05:37:18.437Z,56058.34
2018-08-30T05:39:47.664Z,56060.40
2018-08-30T05:42:16.902Z,56027.50
2018-08-30T05:44:46.161Z,56034.70
2018-08-30T05:47:15.276Z,56035.72
2018-08-30T05:49:44.432Z,56069.65
2018-08-30T05:52:13.542Z,56059.37
2018-08-30T05:54:42.781Z,56048.06
2018-08-30T05:57:11.895Z,56054.23
2018-08-30T05:59:41.930Z,56044.98
2018-08-30T06:02:11.065Z,56043.95
2018-08-30T06:04:40.321Z,56073.77
2018-08-30T06:07:09.533Z,56060.40
2018-08-30T06:09:38.634Z,56044.98
2018-08-30T06:12:07.825Z,56047.03
2018-08-30T06:14:36.952Z,56061.43
2018-08-30T06:17:06.168Z,56055.26
2018-08-30T06:19:35.322Z,56068.62
2018-08-30T06:22:04.467Z,56036.75
2018-08-30T06:24:33.586Z,56053.20
2018-08-30T06:27:03.220Z,56049.09
2018-08-30T06:29:32.446Z,56052.18
2018-08-30T06:32:02.178Z,56050.12
2018-08-30T06:34:31.717Z,56057.32
2018-08-30T06:37:00.928Z,56075.82
2018-08-30T06:39:30.097Z,56074.80
2018-08-30T06:41:59.277Z,56037.78
2018-08-30T06:44:28.515Z,56065.54
2018-08-30T06:46:57.645Z,56063.48
2018-08-30T06:49:26.745Z,56063.48
2018-08-30T06:51:56.049Z,56063.48
2018-08-30T06:54:25.188Z,56073.77
2018-08-30T06:56:54.340Z,56053.20
2018-08-30T06:59:24.603Z,56044.98
2018-08-30T07:01:53.718Z,56068.62
2018-08-30T07:04:22.994Z,56091.25
2018-08-30T07:06:52.015Z,56077.88
2018-08-30T07:09:21.240Z,56086.11
2018-08-30T07:11:50.380Z,56077.88
2018-08-30T07:14:19.523Z,56049.09
2018-08-30T07:16:48.692Z,56054.23
2018-08-30T07:19:17.928Z,56052.18
2018-08-30T07:21:47.070Z,56082.00
2018-08-30T07:24:16.165Z,56074.80
2018-08-30T07:26:45.358Z,56059.37
2018-08-30T07:29:14.477Z,56063.48
2018-08-30T07:34:38.191Z,56051.14
2018-08-30T07:37:13.244Z,56071.71
2018-08-30T07:39:46.274Z,56057.32
2018-08-30T07:42:16.254Z,56068.62
2018-08-30T07:44:45.410Z,56069.65
2018-08-30T07:47:14.605Z,56052.18
2018-08-30T07:49:43.785Z,56053.20
2018-08-30T07:52:12.969Z,56069.65
2018-08-30T07:54:42.177Z,56032.64
2018-08-30T07:57:11.303Z,56062.46
2018-08-30T07:59:40.448Z,56035.72
2018-08-30T08:02:09.690Z,56049.09
2018-08-30T08:04:38.876Z,56039.84
2018-08-30T08:07:08.039Z,56022.36
2018-08-30T08:09:37.226Z,56030.58
2018-08-30T08:12:06.519Z,56030.58
2018-08-30T08:14:35.619Z,56044.98
2018-08-30T08:17:04.917Z,56051.14
2018-08-30T08:19:34.272Z,56059.37
2018-08-30T08:22:03.477Z,56043.95
2018-08-30T08:24:32.636Z,56032.64
2018-08-30T08:27:01.750Z,56032.64
2018-08-30T08:29:31.004Z,56049.09
2018-08-30T08:32:00.136Z,56063.48
2018-08-30T08:34:29.221Z,56061.43
2018-08-30T08:36:58.370Z,56007.96
2018-08-30T08:39:27.529Z,56024.41
2018-08-30T08:41:56.721Z,56039.84
2018-08-30T08:44:26.095Z,56018.24
2018-08-30T08:46:55.226Z,56041.89
2018-08-30T08:49:24.390Z,56022.36
2018-08-30T08:51:53.568Z,56065.54
2018-08-30T08:54:22.713Z,56075.82
2018-08-30T08:56:51.885Z,56066.57
2018-08-30T08:59:21.035Z,56017.21
2018-08-30T09:01:50.284Z,56034.70
2018-08-30T09:04:19.382Z,56048.06
2018-08-30T09:06:48.503Z,56059.37
2018-08-30T09:09:17.681Z,56057.32
2018-08-30T09:11:46.809Z,56039.84
2018-08-30T09:14:15.950Z,56030.58
2018-08-30T09:16:45.115Z,56073.77
2018-08-30T09:19:14.262Z,56030.58
2018-08-30T09:21:43.403Z,56063.48
2018-08-30T09:24:12.540Z,56063.48
2018-08-30T09:26:41.685Z,56061.43
2018-08-30T09:29:10.743Z,56064.51
2018-08-30T09:31:39.967Z,56026.47
2018-08-30T09:34:09.095Z,56060.40
2018-08-30T09:36:38.221Z,56041.89
2018-08-30T09:39:09.089Z,56059.37
2018-08-30T09:41:38.263Z,56055.26
2018-08-30T09:44:07.411Z,56057.32
2018-08-30T09:46:36.555Z,56037.78
2018-08-30T09:49:06.191Z,56034.70
2018-08-30T09:51:35.499Z,56032.64
2018-08-30T09:54:04.601Z,56036.75
2018-08-30T09:56:33.819Z,56015.16
2018-08-30T09:59:09.712Z,56058.34
2018-08-30T10:01:50.514Z,56050.12
2018-08-30T10:04:20.507Z,56059.37
2018-08-30T10:06:49.619Z,56050.12
2018-08-30T10:09:18.903Z,56039.84
2018-08-30T10:11:48.029Z,56036.75
2018-08-30T10:14:17.179Z,56024.41
2018-08-30T10:16:46.398Z,56021.33
2018-08-30T10:19:15.732Z,56051.14
2018-08-30T10:21:44.983Z,56042.92
2018-08-30T10:24:14.149Z,56054.23
2018-08-30T10:26:43.307Z,56005.90
2018-08-30T10:29:12.517Z,55990.48
2018-08-30T10:31:41.862Z,56034.70
2018-08-30T10:34:10.870Z,56076.85
2018-08-30T10:36:40.006Z,56037.78
2018-08-30T10:39:09.412Z,56018.24
2018-08-30T10:41:38.527Z,56043.95
2018-08-30T10:44:07.716Z,56023.38
2018-08-30T10:46:36.886Z,56063.48
2018-08-30T10:49:06.155Z,56011.05
2018-08-30T10:51:35.337Z,56029.55
2018-08-30T10:54:04.460Z,56016.19
2018-08-30T10:56:33.558Z,56044.98
2018-08-30T10:59:02.696Z,56043.95
2018-08-30T11:01:31.847Z,56064.51
2018-08-30T11:04:01.204Z,56060.40
2018-08-30T11:06:30.295Z,56069.65
2018-08-30T11:08:59.487Z,56039.84
2018-08-30T11:11:28.651Z,56075.82
2018-08-30T11:13:57.790Z,56034.70
2018-08-30T11:16:26.904Z,56064.51
2018-08-30T11:18:56.039Z,56042.92
2018-08-30T11:21:25.266Z,55995.62
2018-08-30T11:23:54.345Z,56002.82
2018-08-30T11:26:23.501Z,56013.10
2018-08-30T11:28:52.617Z,56022.36
2018-08-30T11:31:21.831Z,56037.78
2018-08-30T11:33:50.905Z,56030.58
2018-08-30T11:36:20.073Z,56006.93
2018-08-30T11:38:49.254Z,55957.58
2018-08-30T11:41:18.338Z,56007.96
2018-08-30T11:43:47.448Z,56002.82
2018-08-30T11:46:16.538Z,55997.68
2018-08-30T11:48:45.759Z,55998.71
2018-08-30T11:51:16.605Z,56014.13
2018-08-30T11:53:46.305Z,56028.52
2018-08-30T11:56:15.434Z,56036.75
2018-08-30T11:58:44.544Z,56039.84
2018-08-30T12:01:13.646Z,56034.70
2018-08-30T12:03:45.283Z,56046.00
2018-08-30T12:06:14.374Z,56000.76
2018-08-30T12:08:43.611Z,56020.30
2018-08-30T12:11:13.258Z,56007.96
2018-08-30T12:13:42.371Z,55995.62
2018-08-30T12:16:11.482Z,55997.68
2018-08-30T12:18:40.659Z,55997.68
2018-08-30T12:21:09.796Z,56001.79
2018-08-30T12:23:38.976Z,55996.65
2018-08-30T12:26:08.178Z,55997.68
2018-08-30T12:28:38.147Z,55983.28
2018-08-30T12:31:07.314Z,55975.06
2018-08-30T12:33:36.464Z,56026.47
2018-08-30T12:36:06.000Z,56000.76
2018-08-30T12:38:35.079Z,56001.79
2018-08-30T12:41:04.245Z,56014.13
2018-08-30T12:43:33.512Z,56040.86
2018-08-30T12:46:02.521Z,56020.30
2018-08-30T12:48:31.891Z,56004.87
2018-08-30T12:51:01.171Z,56004.87
2018-08-30T12:53:30.306Z,56035.72
2018-08-30T12:55:59.423Z,56019.27
2018-08-30T12:58:28.632Z,56034.70
2018-08-30T13:00:57.780Z,56036.75
2018-08-30T13:03:26.860Z,56008.99
2018-08-30T13:05:56.141Z,56010.02
2018-08-30T13:08:25.331Z,56003.85
2018-08-30T13:10:54.628Z,56008.99
2018-08-30T13:13:23.850Z,56022.36
2018-08-30T13:15:59.263Z,56037.78
2018-08-30T13:18:28.427Z,56032.64
2018-08-30T13:20:57.706Z,56037.78
2018-08-30T13:23:26.802Z,55999.73
2018-08-30T13:25:55.954Z,56050.12
2018-08-30T13:28:25.071Z,56010.02
2018-08-30T13:30:54.391Z,56053.20
2018-08-30T13:33:23.621Z,56029.55
2018-08-30T13:35:52.997Z,56042.92
2018-08-30T13:38:22.281Z,55997.68
2018-08-30T13:40:51.723Z,56005.90
2018-08-30T13:43:20.670Z,55958.61
2018-08-30T13:45:49.793Z,55985.34
2018-08-30T13:48:18.867Z,56026.47
2018-08-30T13:50:48.091Z,56021.33
2018-08-30T13:53:17.258Z,56015.16
2018-08-30T13:55:46.415Z,56008.99
2018-08-30T13:58:15.845Z,56006.93
2018-08-30T14:00:45.244Z,56028.52
2018-08-30T14:03:13.940Z,55996.65
2018-08-30T14:05:43.229Z,56024.41
2018-08-30T14:08:12.217Z,56028.52
2018-08-30T14:10:41.451Z,55998.71
2018-08-30T14:13:10.644Z,56036.75
2018-08-30T14:15:39.453Z,56000.76
2018-08-30T14:18:08.741Z,56028.52
2018-08-30T14:20:37.936Z,56031.61
2018-08-30T14:23:07.139Z,56001.79
2018-08-30T14:25:36.321Z,56016.19
2018-08-30T14:28:05.484Z,56030.58
2018-08-30T14:30:34.648Z,56042.92
2018-08-30T14:33:03.874Z,56055.26
2018-08-30T14:35:33.108Z,56001.79
2018-08-30T14:38:02.334Z,56042.92
2018-08-30T14:40:31.565Z,56020.30
2018-08-30T14:43:00.659Z,56036.75
2018-08-30T14:45:29.876Z,56056.29
2018-08-30T14:47:59.076Z,56050.12
2018-08-30T14:50:28.289Z,56068.62
2018-08-30T14:52:57.549Z,56039.84
2018-08-30T14:55:26.767Z,56025.44
2018-08-30T14:57:56.111Z,56049.09
2018-08-30T15:00:25.371Z,56019.27
2018-08-30T15:02:54.534Z,56063.48
2018-08-30T15:05:23.866Z,56032.64
2018-08-30T15:07:52.980Z,56051.14
2018-08-30T15:10:22.159Z,56071.71
2018-08-30T15:12:51.396Z,56049.09
2018-08-30T15:15:20.665Z,56018.24
2018-08-30T15:17:49.849Z,56037.78
2018-08-30T15:20:19.079Z,56034.70
2018-08-30T15:22:48.310Z,56007.96
2018-08-30T15:25:17.842Z,56000.76
2018-08-30T15:27:47.028Z,56033.67
2018-08-30T15:30:16.247Z,56023.38
2018-08-30T15:32:45.371Z,56020.30
2018-08-30T15:35:14.689Z,56025.44
2018-08-30T15:37:43.914Z,56012.07
2018-08-30T15:40:13.177Z,56049.09
2018-08-30T15:42:42.417Z,56008.99
2018-08-30T15:45:11.559Z,56023.38
2018-08-30T15:47:40.714Z,56023.38
2018-08-30T15:50:09.836Z,56016.19
2018-08-30T15:52:45.801Z,56003.85
2018-08-30T15:55:15.040Z,56028.52
2018-08-30T15:57:44.280Z,56012.07
2018-08-30T16:00:15.798Z,56042.92
2018-08-30T16:02:45.804Z,56020.30
2018-08-30T16:05:14.905Z,56006.93
2018-08-30T16:07:44.547Z,56054.23
2018-08-30T16:10:14.794Z,56051.14
2018-08-30T16:12:44.351Z,56036.75
2018-08-30T16:15:13.854Z,56033.67
2018-08-30T16:17:43.096Z,56046.00
2018-08-30T16:20:12.291Z,56059.37
2018-08-30T16:23:49.256Z,56084.05
2018-08-30T16:26:18.445Z,56079.94
2018-08-30T16:28:47.569Z,56100.50
2018-08-30T16:31:16.825Z,56046.00
2018-08-30T16:33:45.892Z,56075.82
2018-08-30T16:36:15.054Z,56057.32
2018-08-30T16:38:44.257Z,56098.45
2018-08-30T16:41:13.424Z,56063.48
2018-08-30T16:43:42.625Z,56087.14
2018-08-30T16:46:11.820Z,56083.02
2018-08-30T16:48:41.051Z,56088.16
2018-08-30T16:51:10.237Z,56094.33
2018-08-30T16:53:39.457Z,56078.91
2018-08-30T16:56:08.637Z,56067.60
2018-08-30T16:58:37.795Z,56060.40
2018-08-30T17:01:06.963Z,56079.94
2018-08-30T17:03:36.178Z,56091.25
2018-08-30T17:06:05.342Z,56049.09
2018-08-30T17:08:34.565Z,56072.74
2018-08-30T17:11:10.026Z,56090.22
2018-08-30T17:13:39.331Z,56087.14
2018-08-30T17:16:08.616Z,56067.60
2018-08-30T17:18:38.497Z,56068.62
2018-08-30T17:21:07.622Z,56038.81
2018-08-30T17:23:36.784Z,56074.80
2018-08-30T17:26:06.480Z,56074.80
2018-08-30T17:28:35.676Z,56044.98
2018-08-30T17:31:04.902Z,56072.74
2018-08-30T17:33:34.006Z,56065.54
2018-08-30T17:36:03.240Z,56079.94
2018-08-30T17:38:32.376Z,56098.45
2018-08-30T17:41:01.591Z,56075.82
2018-08-30T17:43:30.707Z,56093.30
2018-08-30T17:45:59.866Z,56065.54
2018-08-30T17:48:29.065Z,56075.82
2018-08-30T17:50:58.252Z,56079.94
2018-08-30T17:53:27.369Z,56043.95
2018-08-30T17:55:56.626Z,56096.39
2018-08-30T17:58:25.700Z,56097.42
2018-08-30T18:00:54.933Z,56073.77
2018-08-30T18:03:24.223Z,56077.88
2018-08-30T18:05:53.394Z,56103.59
2018-08-30T18:08:22.682Z,56061.43
2018-08-30T18:10:51.838Z,56086.11
2018-08-30T18:13:21.013Z,56073.77
2018-08-30T18:15:50.297Z,56073.77
2018-08-30T18:18:19.651Z,56093.30
2018-08-30T18:20:48.877Z,56071.71
2018-08-30T18:23:18.077Z,56092.28
2018-08-30T18:25:47.289Z,56069.65
2018-08-30T18:28:16.566Z,56083.02
2018-08-30T18:30:45.726Z,56101.53
2018-08-30T18:33:14.898Z,56074.80
2018-08-30T18:35:44.113Z,56077.88
2018-08-30T18:38:13.279Z,56115.93
2018-08-30T18:40:42.469Z,56069.65
2018-08-30T18:43:11.711Z,56093.30
2018-08-30T18:45:40.900Z,56075.82
2018-08-30T18:48:10.179Z,56061.43
2018-08-30T18:50:39.372Z,56051.14
2018-08-30T18:53:08.622Z,56080.96
2018-08-30T18:55:37.835Z,56101.53
2018-08-30T18:58:07.013Z,56100.50
2018-08-30T19:00:36.158Z,56092.28
2018-08-30T19:03:05.362Z,56083.02
2018-08-30T19:05:34.498Z,56084.05
2018-08-30T19:08:03.717Z,56084.05
2018-08-30T19:10:32.890Z,56094.33
2018-08-30T19:13:02.068Z,56082.00
2018-08-30T19:15:38.332Z,56077.88
2018-08-30T19:18:12.995Z,56104.62
2018-08-30T19:20:42.347Z,56091.25
2018-08-30T19:23:11.864Z,56091.25
2018-08-30T19:25:41.048Z,56077.88
2018-08-30T19:28:10.155Z,56075.82
2018-08-30T19:30:39.339Z,56077.88
2018-08-30T19:33:08.571Z,56088.16
2018-08-30T19:35:43.104Z,56072.74
2018-08-30T19:38:12.264Z,56115.93
2018-08-30T19:40:46.914Z,56109.76
2018-08-30T19:43:16.074Z,56098.45
2018-08-30T19:45:45.223Z,56086.11
2018-08-30T19:48:14.357Z,56108.73
2018-08-30T19:50:43.553Z,56100.50
2018-08-30T19:53:13.277Z,56080.96
2018-08-30T19:55:42.480Z,56070.68
2018-08-30T19:58:11.664Z,56143.69
2018-08-30T20:00:40.950Z,56104.62
2018-08-30T20:03:10.178Z,56077.88
2018-08-30T20:05:39.607Z,56099.47
2018-08-30T20:08:09.031Z,56109.76
2018-08-30T20:10:38.440Z,56064.51
2018-08-30T20:13:08.739Z,56095.36
2018-08-30T20:15:38.145Z,56124.15
2018-08-30T20:18:07.227Z,56102.56
2018-08-30T20:20:36.480Z,56062.46
2018-08-30T20:23:05.765Z,56086.11
2018-08-30T20:25:34.971Z,56068.62
2018-08-30T20:28:04.151Z,56088.16
2018-08-30T20:30:33.288Z,56084.05
2018-08-30T20:33:02.540Z,56077.88
2018-08-30T20:35:31.721Z,56087.14
2018-08-30T20:38:00.849Z,56125.18
2018-08-30T20:40:29.933Z,56116.95
2018-08-30T20:42:59.167Z,56099.47
2018-08-30T20:45:28.369Z,56107.70
2018-08-30T20:47:57.582Z,56097.42
2018-08-30T20:50:26.737Z,56096.39
2018-08-30T20:52:55.897Z,56121.07
2018-08-30T20:55:25.053Z,56086.11
2018-08-30T20:57:54.204Z,56108.73
2018-08-30T21:00:23.447Z,56079.94
2018-08-30T21:02:52.490Z,56069.65
2018-08-30T21:05:21.713Z,56128.27
2018-08-30T21:07:50.851Z,56125.18
2018-08-30T21:10:20.044Z,56103.59
2018-08-30T21:12:49.206Z,56080.96
2018-08-30T21:15:18.358Z,56107.70
2018-08-30T21:17:47.599Z,56136.49
2018-08-30T21:20:16.890Z,56091.25
2018-08-30T21:22:46.093Z,56083.02
2018-08-30T21:25:15.235Z,56121.07
2018-08-30T21:27:44.368Z,56104.62
2018-08-30T21:30:13.488Z,56121.07
2018-08-30T21:32:42.632Z,56116.95
2018-08-30T21:35:11.820Z,56084.05
2018-08-30T21:37:40.895Z,56117.98
2018-08-30T21:40:09.989Z,56111.81
2018-08-30T21:42:39.128Z,56107.70
2018-08-30T21:45:08.200Z,56108.73
2018-08-30T21:47:37.344Z,56091.25
2018-08-30T21:50:06.925Z,56108.73
2018-08-30T21:52:36.010Z,56053.20
2018-08-30T21:55:05.215Z,56098.45
2018-08-30T21:57:34.323Z,56094.33
2018-08-30T22:00:03.472Z,56114.90
2018-08-30T22:02:32.615Z,56090.22
2018-08-30T22:05:01.745Z,56120.04
2018-08-30T22:07:30.946Z,56078.91
2018-08-30T22:10:00.068Z,56127.23
2018-08-30T22:12:29.254Z,56086.11
2018-08-30T22:14:58.359Z,56115.93
2018-08-30T22:17:27.515Z,56102.56
2018-08-30T22:19:56.611Z,56132.38
2018-08-30T22:22:25.834Z,56093.30
2018-08-30T22:24:55.016Z,56102.56
2018-08-30T22:27:24.120Z,56094.33
2018-08-30T22:29:53.292Z,56080.96
2018-08-30T22:32:22.430Z,56096.39
2018-08-30T22:34:51.546Z,56093.30
2018-08-30T22:37:20.671Z,56086.11
2018-08-30T22:39:49.877Z,56095.36
2018-08-30T22:42:19.065Z,56091.25
2018-08-30T22:44:48.235Z,56129.29
2018-08-30T22:47:17.487Z,56117.98
2018-08-30T22:49:46.948Z,56110.79
2018-08-30T22:52:16.081Z,56098.45
2018-08-30T22:54:45.236Z,56129.29
2018-08-30T22:57:14.428Z,56114.90
2018-08-30T22:59:43.551Z,56139.57
2018-08-30T23:02:12.673Z,56134.43
2018-08-30T23:04:41.792Z,56117.98
2018-08-30T23:07:10.942Z,56127.23
2018-08-30T23:09:40.172Z,56102.56
2018-08-30T23:12:09.292Z,56087.14
2018-08-30T23:14:38.355Z,56112.84
2018-08-30T23:17:07.523Z,56131.35
2018-08-30T23:19:36.918Z,56108.73
2018-08-30T23:22:06.207Z,56125.18
2018-08-30T23:24:35.318Z,56092.28
2018-08-30T23:27:04.491Z,56125.18
2018-08-30T23:29:33.613Z,56116.95
2018-08-30T23:32:02.746Z,56138.55
2018-08-30T23:34:31.897Z,56085.08
2018-08-30T23:37:01.017Z,56136.49
2018-08-30T23:39:30.158Z,56126.21
2018-08-30T23:41:59.361Z,56143.69
2018-08-30T23:44:28.478Z,56113.87
2018-08-30T23:46:57.584Z,56141.63
2018-08-30T23:49:26.723Z,56115.93
2018-08-30T23:51:55.825Z,56132.38
2018-08-30T23:54:24.978Z,56131.35
2018-08-30T23:56:54.146Z,56115.93
2018-08-30T23:59:40.508Z,56123.12
